sensor_id;sensor_type;location;lat;lon;timestamp;pressure;altitude;pressure_sealevel;temperature;humidity
38780;BME280;29273;49.962;9.768;2023-04-26T00:00:22;99892.47;;;8.90;49.33
38780;BME280;29273;49.962;9.768;2023-04-26T00:02:48;99880.25;;;8.89;49.66
38780;BME280;29273;49.962;9.768;2023-04-26T00:05:15;99882.28;;;8.87;49.36
38780;BME280;29273;49.962;9.768;2023-04-26T00:07:41;99884.31;;;8.85;49.18
38780;BME280;29273;49.962;9.768;2023-04-26T00:10:07;99885.47;;;8.82;49.14
38780;BME280;29273;49.962;9.768;2023-04-26T00:12:33;99878.97;;;8.78;49.15
38780;BME280;29273;49.962;9.768;2023-04-26T00:15:00;99886.25;;;8.76;49.17
38780;BME280;29273;49.962;9.768;2023-04-26T00:17:26;99887.63;;;8.72;49.12
38780;BME280;29273;49.962;9.768;2023-04-26T00:19:51;99888.81;;;8.69;49.22
38780;BME280;29273;49.962;9.768;2023-04-26T00:22:16;99883.09;;;8.66;48.91
38780;BME280;29273;49.962;9.768;2023-04-26T00:24:42;99883.66;;;8.61;49.19
38780;BME280;29273;49.962;9.768;2023-04-26T00:27:08;99892.75;;;8.59;48.95
38780;BME280;29273;49.962;9.768;2023-04-26T00:29:35;99885.03;;;8.57;49.15
38780;BME280;29273;49.962;9.768;2023-04-26T00:32:02;99887.03;;;8.55;49.42
38780;BME280;29273;49.962;9.768;2023-04-26T00:34:35;99894.78;;;8.57;49.17
38780;BME280;29273;49.962;9.768;2023-04-26T00:37:02;99897.34;;;8.50;49.61
38780;BME280;29273;49.962;9.768;2023-04-26T00:39:28;99894.06;;;8.48;49.58
38780;BME280;29273;49.962;9.768;2023-04-26T00:41:54;99891.81;;;8.45;49.32
38780;BME280;29273;49.962;9.768;2023-04-26T00:44:20;99892.78;;;8.44;49.17
38780;BME280;29273;49.962;9.768;2023-04-26T00:46:46;99904.38;;;8.43;49.20
38780;BME280;29273;49.962;9.768;2023-04-26T00:49:15;99899.91;;;8.43;49.23
38780;BME280;29273;49.962;9.768;2023-04-26T00:51:42;99896.78;;;8.40;49.42
38780;BME280;29273;49.962;9.768;2023-04-26T00:54:08;99904.25;;;8.36;49.71
38780;BME280;29273;49.962;9.768;2023-04-26T00:56:35;99897.97;;;8.37;49.62
38780;BME280;29273;49.962;9.768;2023-04-26T00:59:02;99896.16;;;8.38;49.57
38780;BME280;29273;49.962;9.768;2023-04-26T01:01:27;99903.41;;;8.36;49.72
38780;BME280;29273;49.962;9.768;2023-04-26T01:03:54;99895.88;;;8.32;49.21
38780;BME280;29273;49.962;9.768;2023-04-26T01:06:19;99894.06;;;8.33;49.31
38780;BME280;29273;49.962;9.768;2023-04-26T01:08:45;99898.31;;;8.34;49.41
38780;BME280;29273;49.962;9.768;2023-04-26T01:11:11;99900.34;;;8.32;49.42
38780;BME280;29273;49.962;9.768;2023-04-26T01:13:37;99900.34;;;8.32;49.18
38780;BME280;29273;49.962;9.768;2023-04-26T01:16:06;99906.25;;;8.34;49.32
38780;BME280;29273;49.962;9.768;2023-04-26T01:18:32;99910.44;;;8.28;49.27
38780;BME280;29273;49.962;9.768;2023-04-26T01:20:57;99908.19;;;8.25;49.07
38780;BME280;29273;49.962;9.768;2023-04-26T01:23:26;99909.38;;;8.23;48.95
38780;BME280;29273;49.962;9.768;2023-04-26T01:25:52;99910.09;;;8.17;49.03
38780;BME280;29273;49.962;9.768;2023-04-26T01:28:20;99908.63;;;8.14;49.02
38780;BME280;29273;49.962;9.768;2023-04-26T01:30:46;99903.94;;;8.09;49.09
38780;BME280;29273;49.962;9.768;2023-04-26T01:33:11;99912.38;;;8.05;49.10
38780;BME280;29273;49.962;9.768;2023-04-26T01:35:37;99910.09;;;8.02;49.04
38780;BME280;29273;49.962;9.768;2023-04-26T01:38:02;99908.00;;;7.97;48.95
38780;BME280;29273;49.962;9.768;2023-04-26T01:40:28;99909.38;;;7.93;49.20
38780;BME280;29273;49.962;9.768;2023-04-26T01:42:54;99908.72;;;7.91;49.04
38780;BME280;29273;49.962;9.768;2023-04-26T01:45:19;99908.28;;;7.87;49.12
38780;BME280;29273;49.962;9.768;2023-04-26T01:48:03;99898.47;;;7.81;49.44
38780;BME280;29273;49.962;9.768;2023-04-26T01:50:30;99899.47;;;7.80;49.43
38780;BME280;29273;49.962;9.768;2023-04-26T01:52:56;99902.47;;;7.77;49.40
38780;BME280;29273;49.962;9.768;2023-04-26T01:55:21;99908.72;;;7.76;49.64
38780;BME280;29273;49.962;9.768;2023-04-26T01:57:47;99904.47;;;7.75;49.77
38780;BME280;29273;49.962;9.768;2023-04-26T02:00:13;99912.56;;;7.73;49.66
38780;BME280;29273;49.962;9.768;2023-04-26T02:02:41;99918.63;;;7.74;49.83
38780;BME280;29273;49.962;9.768;2023-04-26T02:05:09;99909.56;;;7.76;49.58
38780;BME280;29273;49.962;9.768;2023-04-26T02:07:35;99910.09;;;7.72;49.71
38780;BME280;29273;49.962;9.768;2023-04-26T02:10:01;99906.81;;;7.70;49.76
38780;BME280;29273;49.962;9.768;2023-04-26T02:12:28;99905.97;;;7.69;49.84
38780;BME280;29273;49.962;9.768;2023-04-26T02:14:53;99914.09;;;7.68;49.83
38780;BME280;29273;49.962;9.768;2023-04-26T02:17:18;99911.47;;;7.68;49.88
38780;BME280;29273;49.962;9.768;2023-04-26T02:19:45;99911.66;;;7.66;49.91
38780;BME280;29273;49.962;9.768;2023-04-26T02:22:11;99909.81;;;7.67;49.71
38780;BME280;29273;49.962;9.768;2023-04-26T02:24:40;99909.00;;;7.66;49.86
38780;BME280;29273;49.962;9.768;2023-04-26T02:27:06;99910.00;;;7.65;49.84
38780;BME280;29273;49.962;9.768;2023-04-26T02:29:33;99914.44;;;7.65;49.88
38780;BME280;29273;49.962;9.768;2023-04-26T02:32:01;99920.53;;;7.65;49.83
38780;BME280;29273;49.962;9.768;2023-04-26T02:34:26;99908.34;;;7.64;49.99
38780;BME280;29273;49.962;9.768;2023-04-26T02:36:52;99915.44;;;7.64;49.73
38780;BME280;29273;49.962;9.768;2023-04-26T02:39:19;99913.16;;;7.60;49.44
38780;BME280;29273;49.962;9.768;2023-04-26T02:41:45;99918.59;;;7.59;49.26
38780;BME280;29273;49.962;9.768;2023-04-26T02:44:11;99920.78;;;7.55;49.37
38780;BME280;29273;49.962;9.768;2023-04-26T02:46:36;99920.50;;;7.50;49.13
38780;BME280;29273;49.962;9.768;2023-04-26T02:49:02;99918.22;;;7.47;49.37
38780;BME280;29273;49.962;9.768;2023-04-26T02:51:27;99917.78;;;7.44;49.33
38780;BME280;29273;49.962;9.768;2023-04-26T02:53:53;99922.59;;;7.40;49.37
38780;BME280;29273;49.962;9.768;2023-04-26T02:56:18;99918.47;;;7.37;49.37
38780;BME280;29273;49.962;9.768;2023-04-26T02:58:44;99913.75;;;7.33;49.20
38780;BME280;29273;49.962;9.768;2023-04-26T03:01:10;99917.56;;;7.30;49.44
38780;BME280;29273;49.962;9.768;2023-04-26T03:03:37;99916.28;;;7.26;49.67
38780;BME280;29273;49.962;9.768;2023-04-26T03:06:03;99924.38;;;7.25;49.84
38780;BME280;29273;49.962;9.768;2023-04-26T03:08:29;99924.53;;;7.23;49.64
38780;BME280;29273;49.962;9.768;2023-04-26T03:10:54;99930.78;;;7.22;49.41
38780;BME280;29273;49.962;9.768;2023-04-26T03:13:22;99923.69;;;7.22;49.32
38780;BME280;29273;49.962;9.768;2023-04-26T03:15:48;99924.44;;;7.16;49.36
38780;BME280;29273;49.962;9.768;2023-04-26T03:18:14;99917.03;;;7.12;49.38
38780;BME280;29273;49.962;9.768;2023-04-26T03:20:41;99920.66;;;7.11;49.40
38780;BME280;29273;49.962;9.768;2023-04-26T03:23:06;99916.75;;;7.07;49.56
38780;BME280;29273;49.962;9.768;2023-04-26T03:25:32;99918.75;;;7.04;49.49
38780;BME280;29273;49.962;9.768;2023-04-26T03:27:58;99915.63;;;7.01;49.65
38780;BME280;29273;49.962;9.768;2023-04-26T03:30:24;99922.88;;;6.99;49.72
38780;BME280;29273;49.962;9.768;2023-04-26T03:32:50;99923.22;;;6.96;49.61
38780;BME280;29273;49.962;9.768;2023-04-26T03:35:16;99928.66;;;6.94;49.47
38780;BME280;29273;49.962;9.768;2023-04-26T03:37:42;99918.53;;;6.91;49.50
38780;BME280;29273;49.962;9.768;2023-04-26T03:40:11;99926.59;;;6.90;49.63
38780;BME280;29273;49.962;9.768;2023-04-26T03:42:36;99921.66;;;6.87;49.66
38780;BME280;29273;49.962;9.768;2023-04-26T03:45:02;99931.56;;;6.84;49.81
38780;BME280;29273;49.962;9.768;2023-04-26T03:47:31;99925.91;;;6.88;49.65
38780;BME280;29273;49.962;9.768;2023-04-26T03:49:57;99921.38;;;6.81;49.85
38780;BME280;29273;49.962;9.768;2023-04-26T03:52:24;99926.63;;;6.81;49.87
38780;BME280;29273;49.962;9.768;2023-04-26T03:54:50;99925.97;;;6.79;50.03
38780;BME280;29273;49.962;9.768;2023-04-26T03:57:16;99932.06;;;6.80;50.14
38780;BME280;29273;49.962;9.768;2023-04-26T03:59:41;99932.25;;;6.78;50.09
38780;BME280;29273;49.962;9.768;2023-04-26T04:02:07;99929.63;;;6.78;50.24
38780;BME280;29273;49.962;9.768;2023-04-26T04:04:33;99934.88;;;6.78;50.23
38780;BME280;29273;49.962;9.768;2023-04-26T04:06:58;99925.31;;;6.77;49.98
38780;BME280;29273;49.962;9.768;2023-04-26T04:09:24;99937.69;;;6.77;49.97
38780;BME280;29273;49.962;9.768;2023-04-26T04:11:49;99935.38;;;6.74;49.81
38780;BME280;29273;49.962;9.768;2023-04-26T04:14:15;99940.81;;;6.72;49.72
38780;BME280;29273;49.962;9.768;2023-04-26T04:16:41;99934.91;;;6.70;49.82
38780;BME280;29273;49.962;9.768;2023-04-26T04:19:06;99932.47;;;6.69;49.95
38780;BME280;29273;49.962;9.768;2023-04-26T04:21:33;99938.69;;;6.67;49.89
38780;BME280;29273;49.962;9.768;2023-04-26T04:23:59;99946.97;;;6.64;49.68
38780;BME280;29273;49.962;9.768;2023-04-26T04:26:25;99945.50;;;6.62;49.86
38780;BME280;29273;49.962;9.768;2023-04-26T04:28:52;99939.59;;;6.60;49.80
38780;BME280;29273;49.962;9.768;2023-04-26T04:31:20;99937.94;;;6.59;49.98
38780;BME280;29273;49.962;9.768;2023-04-26T04:33:45;99939.13;;;6.56;50.45
38780;BME280;29273;49.962;9.768;2023-04-26T04:36:11;99942.72;;;6.55;50.26
38780;BME280;29273;49.962;9.768;2023-04-26T04:38:37;99949.63;;;6.56;50.52
38780;BME280;29273;49.962;9.768;2023-04-26T04:41:04;99945.19;;;6.57;50.52
38780;BME280;29273;49.962;9.768;2023-04-26T04:43:30;99946.84;;;6.58;50.71
38780;BME280;29273;49.962;9.768;2023-04-26T04:45:55;99946.84;;;6.58;50.83
38780;BME280;29273;49.962;9.768;2023-04-26T04:48:21;99956.19;;;6.60;50.41
38780;BME280;29273;49.962;9.768;2023-04-26T04:50:48;99957.84;;;6.61;50.33
38780;BME280;29273;49.962;9.768;2023-04-26T04:53:14;99958.00;;;6.60;50.54
38780;BME280;29273;49.962;9.768;2023-04-26T04:55:39;99958.19;;;6.58;50.70
38780;BME280;29273;49.962;9.768;2023-04-26T04:58:07;99955.53;;;6.58;50.79
38780;BME280;29273;49.962;9.768;2023-04-26T05:00:33;99958.19;;;6.58;51.17
38780;BME280;29273;49.962;9.768;2023-04-26T05:03:12;99954.38;;;6.61;51.04
38780;BME280;29273;49.962;9.768;2023-04-26T05:05:38;99951.91;;;6.59;51.21
38780;BME280;29273;49.962;9.768;2023-04-26T05:08:04;99964.06;;;6.60;51.49
38780;BME280;29273;49.962;9.768;2023-04-26T05:10:33;99969.66;;;6.65;51.30
38780;BME280;29273;49.962;9.768;2023-04-26T05:13:00;99974.09;;;6.65;51.39
38780;BME280;29273;49.962;9.768;2023-04-26T05:15:26;99970.47;;;6.66;51.42
38780;BME280;29273;49.962;9.768;2023-04-26T05:17:51;99979.19;;;6.66;51.68
38780;BME280;29273;49.962;9.768;2023-04-26T05:20:21;99979.66;;;6.70;51.62
38780;BME280;29273;49.962;9.768;2023-04-26T05:22:47;99976.06;;;6.71;51.96
38780;BME280;29273;49.962;9.768;2023-04-26T05:25:13;99980.94;;;6.74;51.89
38780;BME280;29273;49.962;9.768;2023-04-26T05:27:39;99978.31;;;6.74;51.97
38780;BME280;29273;49.962;9.768;2023-04-26T05:30:34;99990.16;;;6.78;51.96
38780;BME280;29273;49.962;9.768;2023-04-26T05:33:17;99991.59;;;6.81;51.89
38780;BME280;29273;49.962;9.768;2023-04-26T05:35:54;99994.75;;;6.84;51.81
38780;BME280;29273;49.962;9.768;2023-04-26T05:38:23;99993.56;;;6.87;52.21
38780;BME280;29273;49.962;9.768;2023-04-26T05:40:48;99998.47;;;6.90;52.12
38780;BME280;29273;49.962;9.768;2023-04-26T05:43:14;100001.94;;;6.91;51.98
38780;BME280;29273;49.962;9.768;2023-04-26T05:45:39;100004.38;;;6.92;52.18
38780;BME280;29273;49.962;9.768;2023-04-26T05:48:05;100001.41;;;6.95;52.05
38780;BME280;29273;49.962;9.768;2023-04-26T05:50:31;99996.97;;;6.96;52.25
38780;BME280;29273;49.962;9.768;2023-04-26T05:52:57;100002.06;;;6.97;52.33
38780;BME280;29273;49.962;9.768;2023-04-26T05:55:22;100002.06;;;6.97;52.41
38780;BME280;29273;49.962;9.768;2023-04-26T05:57:48;100009.59;;;7.00;52.67
38780;BME280;29273;49.962;9.768;2023-04-26T06:00:14;100002.53;;;7.01;52.66
38780;BME280;29273;49.962;9.768;2023-04-26T06:02:40;100008.28;;;7.04;52.69
38780;BME280;29273;49.962;9.768;2023-04-26T06:05:10;100009.09;;;7.05;52.56
38780;BME280;29273;49.962;9.768;2023-04-26T06:07:36;100006.94;;;7.09;52.74
38780;BME280;29273;49.962;9.768;2023-04-26T06:10:02;100013.69;;;7.11;52.62
38780;BME280;29273;49.962;9.768;2023-04-26T06:12:29;100010.66;;;7.14;52.86
38780;BME280;29273;49.962;9.768;2023-04-26T06:14:55;100014.78;;;7.17;53.07
38780;BME280;29273;49.962;9.768;2023-04-26T06:17:24;100020.53;;;7.20;52.97
38780;BME280;29273;49.962;9.768;2023-04-26T06:19:50;100011.28;;;7.25;52.83
38780;BME280;29273;49.962;9.768;2023-04-26T06:22:15;100009.94;;;7.29;53.12
38780;BME280;29273;49.962;9.768;2023-04-26T06:24:40;100016.50;;;7.33;53.01
38780;BME280;29273;49.962;9.768;2023-04-26T06:27:06;100010.06;;;7.35;52.94
38780;BME280;29273;49.962;9.768;2023-04-26T06:29:34;100011.34;;;7.39;52.90
38780;BME280;29273;49.962;9.768;2023-04-26T06:31:59;100017.91;;;7.44;52.93
38780;BME280;29273;49.962;9.768;2023-04-26T06:34:25;100014.28;;;7.45;53.11
38780;BME280;29273;49.962;9.768;2023-04-26T06:36:51;100011.94;;;7.50;53.09
38780;BME280;29273;49.962;9.768;2023-04-26T06:39:17;100013.84;;;7.56;53.23
38780;BME280;29273;49.962;9.768;2023-04-26T06:41:43;100022.88;;;7.62;53.12
38780;BME280;29273;49.962;9.768;2023-04-26T06:44:09;100023.16;;;7.67;53.14
38780;BME280;29273;49.962;9.768;2023-04-26T06:46:40;100020.81;;;7.72;53.17
38780;BME280;29273;49.962;9.768;2023-04-26T06:49:06;100021.91;;;7.77;53.14
38780;BME280;29273;49.962;9.768;2023-04-26T06:51:35;100024.81;;;7.83;52.85
38780;BME280;29273;49.962;9.768;2023-04-26T06:54:01;100027.78;;;7.88;52.74
38780;BME280;29273;49.962;9.768;2023-04-26T06:56:26;100023.78;;;7.92;52.73
38780;BME280;29273;49.962;9.768;2023-04-26T06:58:59;100013.78;;;8.02;52.40
38780;BME280;29273;49.962;9.768;2023-04-26T07:01:26;100023.34;;;8.03;52.87
38780;BME280;29273;49.962;9.768;2023-04-26T07:03:56;100019.44;;;8.14;52.35
38780;BME280;29273;49.962;9.768;2023-04-26T07:06:25;100016.63;;;8.15;52.17
38780;BME280;29273;49.962;9.768;2023-04-26T07:08:50;100012.28;;;8.23;52.22
38780;BME280;29273;49.962;9.768;2023-04-26T07:11:16;100013.34;;;8.28;51.90
38780;BME280;29273;49.962;9.768;2023-04-26T07:13:42;100012.63;;;8.34;51.58
38780;BME280;29273;49.962;9.768;2023-04-26T07:16:07;100015.56;;;8.40;51.73
38780;BME280;29273;49.962;9.768;2023-04-26T07:18:33;100014.03;;;8.45;52.28
38780;BME280;29273;49.962;9.768;2023-04-26T07:20:58;100021.03;;;8.53;52.17
38780;BME280;29273;49.962;9.768;2023-04-26T07:23:24;100013.38;;;8.58;52.08
38780;BME280;29273;49.962;9.768;2023-04-26T07:25:49;100018.94;;;8.63;51.76
38780;BME280;29273;49.962;9.768;2023-04-26T07:28:15;100011.28;;;8.68;52.07
38780;BME280;29273;49.962;9.768;2023-04-26T07:30:40;100000.16;;;8.73;51.69
38780;BME280;29273;49.962;9.768;2023-04-26T07:33:06;100010.00;;;8.79;51.79
38780;BME280;29273;49.962;9.768;2023-04-26T07:35:32;100003.16;;;8.85;52.11
38780;BME280;29273;49.962;9.768;2023-04-26T07:38:00;100005.88;;;8.92;51.98
38780;BME280;29273;49.962;9.768;2023-04-26T07:40:25;100006.31;;;8.95;52.12
38780;BME280;29273;49.962;9.768;2023-04-26T07:42:52;100010.00;;;9.01;51.34
38780;BME280;29273;49.962;9.768;2023-04-26T07:45:18;100000.53;;;9.06;51.51
38780;BME280;29273;49.962;9.768;2023-04-26T07:47:44;100006.09;;;9.12;51.43
38780;BME280;29273;49.962;9.768;2023-04-26T07:50:10;100007.81;;;9.19;51.00
38780;BME280;29273;49.962;9.768;2023-04-26T07:52:36;100003.75;;;9.23;50.66
38780;BME280;29273;49.962;9.768;2023-04-26T07:55:01;100004.00;;;9.29;50.65
38780;BME280;29273;49.962;9.768;2023-04-26T07:57:27;100006.28;;;9.32;50.09
38780;BME280;29273;49.962;9.768;2023-04-26T07:59:52;100011.63;;;9.38;49.01
38780;BME280;29273;49.962;9.768;2023-04-26T08:02:18;100002.31;;;9.42;48.70
38780;BME280;29273;49.962;9.768;2023-04-26T08:04:48;99995.72;;;9.53;49.40
38780;BME280;29273;49.962;9.768;2023-04-26T08:07:17;99994.50;;;9.56;48.76
38780;BME280;29273;49.962;9.768;2023-04-26T08:09:43;99997.59;;;9.59;49.12
38780;BME280;29273;49.962;9.768;2023-04-26T08:12:10;99994.81;;;9.68;49.09
38780;BME280;29273;49.962;9.768;2023-04-26T08:14:35;99992.59;;;9.71;47.98
38780;BME280;29273;49.962;9.768;2023-04-26T08:17:01;99986.53;;;9.77;48.50
38780;BME280;29273;49.962;9.768;2023-04-26T08:19:26;99994.53;;;9.84;48.67
38780;BME280;29273;49.962;9.768;2023-04-26T08:21:55;99987.09;;;9.94;47.88
38780;BME280;29273;49.962;9.768;2023-04-26T08:24:21;99987.94;;;10.02;47.61
38780;BME280;29273;49.962;9.768;2023-04-26T08:26:46;99989.63;;;10.09;47.67
38780;BME280;29273;49.962;9.768;2023-04-26T08:29:12;99988.44;;;10.18;47.94
38780;BME280;29273;49.962;9.768;2023-04-26T08:31:39;99986.06;;;10.30;47.53
38780;BME280;29273;49.962;9.768;2023-04-26T08:34:06;99985.38;;;10.43;47.14
38780;BME280;29273;49.962;9.768;2023-04-26T08:36:36;99989.94;;;10.63;48.39
38780;BME280;29273;49.962;9.768;2023-04-26T08:39:02;99985.28;;;10.71;47.42
38780;BME280;29273;49.962;9.768;2023-04-26T08:41:30;99987.78;;;10.86;46.92
38780;BME280;29273;49.962;9.768;2023-04-26T08:43:59;99981.28;;;10.96;45.73
38780;BME280;29273;49.962;9.768;2023-04-26T08:49:38;99988.06;;;11.11;48.41
38780;BME280;29273;49.962;9.768;2023-04-26T08:52:08;99996.03;;;11.18;46.83
38780;BME280;29273;49.962;9.768;2023-04-26T08:54:34;100000.50;;;11.18;44.20
38780;BME280;29273;49.962;9.768;2023-04-26T08:57:01;100003.78;;;11.20;44.55
38780;BME280;29273;49.962;9.768;2023-04-26T08:59:31;99993.19;;;11.26;46.03
38780;BME280;29273;49.962;9.768;2023-04-26T09:01:58;99987.28;;;11.24;44.71
38780;BME280;29273;49.962;9.768;2023-04-26T09:04:24;99989.72;;;11.26;44.76
38780;BME280;29273;49.962;9.768;2023-04-26T09:06:52;99992.19;;;11.34;46.19
38780;BME280;29273;49.962;9.768;2023-04-26T09:09:18;99993.00;;;11.35;45.36
38780;BME280;29273;49.962;9.768;2023-04-26T09:12:10;99991.16;;;11.42;47.88
38780;BME280;29273;49.962;9.768;2023-04-26T09:14:37;99984.84;;;11.50;46.02
38780;BME280;29273;49.962;9.768;2023-04-26T09:17:03;99983.41;;;11.54;44.90
38780;BME280;29273;49.962;9.768;2023-04-26T09:19:38;99985.25;;;11.66;46.98
38780;BME280;29273;49.962;9.768;2023-04-26T09:22:07;99985.47;;;11.65;45.01
38780;BME280;29273;49.962;9.768;2023-04-26T09:24:51;99977.28;;;11.73;46.47
38780;BME280;29273;49.962;9.768;2023-04-26T09:27:17;99982.19;;;11.76;45.27
38780;BME280;29273;49.962;9.768;2023-04-26T09:32:25;99974.25;;;11.63;48.00
38780;BME280;29273;49.962;9.768;2023-04-26T09:34:51;99970.78;;;11.82;44.57
38780;BME280;29273;49.962;9.768;2023-04-26T09:37:16;99965.66;;;11.88;43.24
38780;BME280;29273;49.962;9.768;2023-04-26T09:39:42;99965.69;;;11.94;43.75
38780;BME280;29273;49.962;9.768;2023-04-26T09:42:08;99957.72;;;12.01;43.00
38780;BME280;29273;49.962;9.768;2023-04-26T09:44:35;99964.81;;;12.07;43.26
38780;BME280;29273;49.962;9.768;2023-04-26T09:47:09;99961.31;;;12.20;45.08
38780;BME280;29273;49.962;9.768;2023-04-26T09:49:49;99957.00;;;12.26;44.69
38780;BME280;29273;49.962;9.768;2023-04-26T09:52:17;99955.78;;;12.28;41.86
38780;BME280;29273;49.962;9.768;2023-04-26T09:54:51;99956.75;;;12.40;44.15
38780;BME280;29273;49.962;9.768;2023-04-26T09:57:18;99954.94;;;12.41;41.73
38780;BME280;29273;49.962;9.768;2023-04-26T09:59:51;99961.22;;;12.53;44.47
38780;BME280;29273;49.962;9.768;2023-04-26T10:02:20;99959.38;;;12.54;41.68
38780;BME280;29273;49.962;9.768;2023-04-26T10:04:48;99961.56;;;12.64;41.85
38780;BME280;29273;49.962;9.768;2023-04-26T10:07:16;99965.84;;;12.71;41.13
38780;BME280;29273;49.962;9.768;2023-04-26T10:09:42;99957.44;;;12.74;39.13
38780;BME280;29273;49.962;9.768;2023-04-26T10:12:11;99953.91;;;12.87;40.06
38780;BME280;29273;49.962;9.768;2023-04-26T10:14:36;99945.72;;;12.89;38.20
38780;BME280;29273;49.962;9.768;2023-04-26T10:17:03;99948.13;;;12.97;39.46
38780;BME280;29273;49.962;9.768;2023-04-26T10:19:31;99940.94;;;13.04;38.28
38780;BME280;29273;49.962;9.768;2023-04-26T10:22:01;99944.94;;;13.13;39.42
38780;BME280;29273;49.962;9.768;2023-04-26T10:24:28;99949.25;;;13.14;36.50
38780;BME280;29273;49.962;9.768;2023-04-26T10:26:54;99948.19;;;13.22;36.31
38780;BME280;29273;49.962;9.768;2023-04-26T10:29:25;99948.34;;;13.34;39.05
38780;BME280;29273;49.962;9.768;2023-04-26T10:34:27;99941.31;;;13.40;37.79
38780;BME280;29273;49.962;9.768;2023-04-26T10:37:08;99945.34;;;13.49;39.70
38780;BME280;29273;49.962;9.768;2023-04-26T10:39:34;99936.75;;;13.47;35.79
38780;BME280;29273;49.962;9.768;2023-04-26T10:47:33;99928.38;;;13.68;39.88
38780;BME280;29273;49.962;9.768;2023-04-26T10:50:09;99915.44;;;13.72;37.87
38780;BME280;29273;49.962;9.768;2023-04-26T10:58:32;99910.81;;;13.86;38.94
38780;BME280;29273;49.962;9.768;2023-04-26T11:01:15;99915.84;;;13.94;38.33
38780;BME280;29273;49.962;9.768;2023-04-26T11:03:43;99914.00;;;13.95;35.57
38780;BME280;29273;49.962;9.768;2023-04-26T11:06:09;99903.94;;;13.97;34.76
38780;BME280;29273;49.962;9.768;2023-04-26T11:08:39;99895.88;;;14.03;35.48
38780;BME280;29273;49.962;9.768;2023-04-26T11:11:08;99893.13;;;14.10;35.89
38780;BME280;29273;49.962;9.768;2023-04-26T11:13:36;99897.22;;;14.13;35.78
38780;BME280;29273;49.962;9.768;2023-04-26T11:16:09;99902.47;;;14.19;37.64
38780;BME280;29273;49.962;9.768;2023-04-26T11:18:36;99891.44;;;14.16;34.52
38780;BME280;29273;49.962;9.768;2023-04-26T11:21:04;99895.06;;;14.21;35.22
38780;BME280;29273;49.962;9.768;2023-04-26T11:23:30;99890.31;;;14.23;36.04
38780;BME280;29273;49.962;9.768;2023-04-26T11:26:00;99890.84;;;14.32;36.68
38780;BME280;29273;49.962;9.768;2023-04-26T11:28:29;99892.91;;;14.30;34.71
38780;BME280;29273;49.962;9.768;2023-04-26T11:30:55;99886.91;;;14.35;34.56
38780;BME280;29273;49.962;9.768;2023-04-26T11:33:21;99882.78;;;14.39;35.16
38780;BME280;29273;49.962;9.768;2023-04-26T11:35:48;99887.19;;;14.45;35.79
38780;BME280;29273;49.962;9.768;2023-04-26T11:38:15;99882.47;;;14.47;33.91
38780;BME280;29273;49.962;9.768;2023-04-26T11:40:41;99880.16;;;14.51;33.38
38780;BME280;29273;49.962;9.768;2023-04-26T11:43:07;99873.91;;;14.57;34.12
38780;BME280;29273;49.962;9.768;2023-04-26T11:45:37;99881.16;;;14.68;36.53
38780;BME280;29273;49.962;9.768;2023-04-26T11:48:05;99875.38;;;14.71;35.69
38780;BME280;29273;49.962;9.768;2023-04-26T11:50:33;99874.13;;;14.74;35.94
38780;BME280;29273;49.962;9.768;2023-04-26T11:53:00;99873.41;;;14.78;33.44
38780;BME280;29273;49.962;9.768;2023-04-26T11:55:32;99869.84;;;14.85;35.15
38780;BME280;29273;49.962;9.768;2023-04-26T11:57:59;99873.56;;;14.84;34.20
38780;BME280;29273;49.962;9.768;2023-04-26T12:00:26;99874.38;;;14.84;34.44
38780;BME280;29273;49.962;9.768;2023-04-26T12:02:52;99880.53;;;14.85;34.08
38780;BME280;29273;49.962;9.768;2023-04-26T12:05:28;99891.88;;;14.92;36.86
38780;BME280;29273;49.962;9.768;2023-04-26T12:07:58;99874.97;;;14.86;33.22
38780;BME280;29273;49.962;9.768;2023-04-26T12:10:32;99877.06;;;14.84;32.27
38780;BME280;29273;49.962;9.768;2023-04-26T12:12:58;99884.00;;;14.85;32.18
38780;BME280;29273;49.962;9.768;2023-04-26T12:15:27;99878.56;;;14.92;35.25
38780;BME280;29273;49.962;9.768;2023-04-26T12:18:05;99883.66;;;14.93;34.50
38780;BME280;29273;49.962;9.768;2023-04-26T12:20:34;99886.56;;;14.92;32.82
38780;BME280;29273;49.962;9.768;2023-04-26T12:23:05;99878.94;;;14.95;33.65
38780;BME280;29273;49.962;9.768;2023-04-26T12:25:32;99882.19;;;14.97;33.50
38780;BME280;29273;49.962;9.768;2023-04-26T12:27:58;99878.84;;;15.02;33.14
38780;BME280;29273;49.962;9.768;2023-04-26T12:30:25;99866.44;;;15.08;33.59
38780;BME280;29273;49.962;9.768;2023-04-26T12:33:00;99872.91;;;15.12;33.44
38780;BME280;29273;49.962;9.768;2023-04-26T12:35:26;99864.22;;;15.16;34.14
38780;BME280;29273;49.962;9.768;2023-04-26T12:37:51;99865.88;;;15.17;32.68
38780;BME280;29273;49.962;9.768;2023-04-26T12:40:19;99869.09;;;15.20;32.68
38780;BME280;29273;49.962;9.768;2023-04-26T12:42:46;99862.25;;;15.24;33.56
38780;BME280;29273;49.962;9.768;2023-04-26T12:45:12;99858.66;;;15.18;32.94
38780;BME280;29273;49.962;9.768;2023-04-26T12:47:37;99854.97;;;15.19;32.37
38780;BME280;29273;49.962;9.768;2023-04-26T12:50:03;99856.34;;;15.22;32.42
38780;BME280;29273;49.962;9.768;2023-04-26T12:52:29;99854.50;;;15.22;32.76
38780;BME280;29273;49.962;9.768;2023-04-26T12:54:54;99864.34;;;15.22;32.23
38780;BME280;29273;49.962;9.768;2023-04-26T12:57:20;99861.09;;;15.20;32.38
38780;BME280;29273;49.962;9.768;2023-04-26T12:59:46;99859.25;;;15.20;32.99
38780;BME280;29273;49.962;9.768;2023-04-26T13:02:12;99849.97;;;15.23;33.70
38780;BME280;29273;49.962;9.768;2023-04-26T13:04:37;99854.25;;;15.24;31.59
38780;BME280;29273;49.962;9.768;2023-04-26T13:07:03;99856.00;;;15.30;31.36
38780;BME280;29273;49.962;9.768;2023-04-26T13:09:28;99855.09;;;15.36;33.97
38780;BME280;29273;49.962;9.768;2023-04-26T13:11:54;99853.56;;;15.40;31.24
38780;BME280;29273;49.962;9.768;2023-04-26T13:14:19;99857.75;;;15.48;32.35
38780;BME280;29273;49.962;9.768;2023-04-26T13:16:47;99845.91;;;15.56;32.22
38780;BME280;29273;49.962;9.768;2023-04-26T13:19:13;99846.84;;;15.61;32.63
38780;BME280;29273;49.962;9.768;2023-04-26T13:21:39;99847.50;;;15.68;32.70
38780;BME280;29273;49.962;9.768;2023-04-26T13:24:06;99841.84;;;15.77;32.54